sensor_id;sensor_type;location;lat;lon;timestamp;P1;durP1;ratioP1;P2;durP2;ratioP2
68579;SDS011;55555;52.136;5.424;2022-11-25T00:01:29;26.77;;;4.40;;
68579;SDS011;55555;52.136;5.424;2022-11-25T00:03:59;18.63;;;5.40;;
68579;SDS011;55555;52.136;5.424;2022-11-25T00:08:59;24.55;;;4.80;;
68579;SDS011;55555;52.136;5.424;2022-11-25T00:11:34;27.75;;;6.07;;
68579;SDS011;55555;52.136;5.424;2022-11-25T00:14:03;23.10;;;4.20;;
68579;SDS011;55555;52.136;5.424;2022-11-25T00:16:32;29.57;;;4.30;;
68579;SDS011;55555;52.136;5.424;2022-11-25T00:19:01;28.15;;;4.85;;
68579;SDS011;55555;52.136;5.424;2022-11-25T00:21:30;27.65;;;5.30;;
68579;SDS011;55555;52.136;5.424;2022-11-25T00:24:02;21.13;;;4.47;;
68579;SDS011;55555;52.136;5.424;2022-11-25T00:26:33;25.80;;;5.03;;
68579;SDS011;55555;52.136;5.424;2022-11-25T00:29:04;22.77;;;5.33;;
68579;SDS011;55555;52.136;5.424;2022-11-25T00:31:36;25.02;;;4.82;;
68579;SDS011;55555;52.136;5.424;2022-11-25T00:34:06;29.00;;;5.22;;
68579;SDS011;55555;52.136;5.424;2022-11-25T00:36:37;22.30;;;4.97;;
68579;SDS011;55555;52.136;5.424;2022-11-25T00:39:06;21.67;;;4.47;;
68579;SDS011;55555;52.136;5.424;2022-11-25T00:41:40;31.70;;;4.83;;
68579;SDS011;55555;52.136;5.424;2022-11-25T00:44:28;29.38;;;5.25;;
68579;SDS011;55555;52.136;5.424;2022-11-25T00:47:04;33.22;;;5.05;;
68579;SDS011;55555;52.136;5.424;2022-11-25T00:50:00;23.05;;;5.10;;
68579;SDS011;55555;52.136;5.424;2022-11-25T00:52:27;21.08;;;4.45;;
68579;SDS011;55555;52.136;5.424;2022-11-25T00:54:55;27.50;;;4.63;;
68579;SDS011;55555;52.136;5.424;2022-11-25T00:57:23;25.60;;;5.00;;
68579;SDS011;55555;52.136;5.424;2022-11-25T00:59:51;28.60;;;5.30;;
68579;SDS011;55555;52.136;5.424;2022-11-25T01:02:20;22.63;;;4.85;;
68579;SDS011;55555;52.136;5.424;2022-11-25T01:04:48;23.27;;;4.43;;
68579;SDS011;55555;52.136;5.424;2022-11-25T01:07:16;32.63;;;4.97;;
68579;SDS011;55555;52.136;5.424;2022-11-25T01:09:44;28.77;;;5.40;;
68579;SDS011;55555;52.136;5.424;2022-11-25T01:12:13;25.80;;;5.28;;
68579;SDS011;55555;52.136;5.424;2022-11-25T01:14:49;30.58;;;5.38;;
68579;SDS011;55555;52.136;5.424;2022-11-25T01:17:33;25.60;;;5.68;;
68579;SDS011;55555;52.136;5.424;2022-11-25T01:20:01;28.00;;;5.40;;
68579;SDS011;55555;52.136;5.424;2022-11-25T01:22:29;24.42;;;5.85;;
68579;SDS011;55555;52.136;5.424;2022-11-25T01:24:57;27.05;;;5.78;;
68579;SDS011;55555;52.136;5.424;2022-11-25T01:27:24;34.13;;;5.97;;
68579;SDS011;55555;52.136;5.424;2022-11-25T01:29:52;23.00;;;5.45;;
68579;SDS011;55555;52.136;5.424;2022-11-25T01:32:20;36.50;;;7.07;;
68579;SDS011;55555;52.136;5.424;2022-11-25T01:34:47;28.70;;;5.40;;
68579;SDS011;55555;52.136;5.424;2022-11-25T01:37:15;22.48;;;6.00;;
68579;SDS011;55555;52.136;5.424;2022-11-25T01:39:43;21.00;;;5.03;;
68579;SDS011;55555;52.136;5.424;2022-11-25T01:42:10;23.85;;;5.75;;
68579;SDS011;55555;52.136;5.424;2022-11-25T01:44:39;25.83;;;5.60;;
68579;SDS011;55555;52.136;5.424;2022-11-25T01:50:05;24.88;;;5.43;;
68579;SDS011;55555;52.136;5.424;2022-11-25T01:52:37;26.95;;;5.80;;
68579;SDS011;55555;52.136;5.424;2022-11-25T01:55:15;27.95;;;5.45;;
68579;SDS011;55555;52.136;5.424;2022-11-25T01:57:51;32.33;;;5.90;;
68579;SDS011;55555;52.136;5.424;2022-11-25T02:00:35;35.67;;;5.78;;
68579;SDS011;55555;52.136;5.424;2022-11-25T02:03:04;23.05;;;5.10;;
68579;SDS011;55555;52.136;5.424;2022-11-25T02:05:38;23.92;;;6.18;;
68579;SDS011;55555;52.136;5.424;2022-11-25T02:08:30;26.80;;;5.05;;
68579;SDS011;55555;52.136;5.424;2022-11-25T02:11:00;29.23;;;5.90;;
68579;SDS011;55555;52.136;5.424;2022-11-25T02:13:31;31.05;;;5.07;;
68579;SDS011;55555;52.136;5.424;2022-11-25T02:15:59;29.10;;;5.30;;
68579;SDS011;55555;52.136;5.424;2022-11-25T02:18:27;36.20;;;5.75;;
68579;SDS011;55555;52.136;5.424;2022-11-25T02:20:55;26.75;;;5.05;;
68579;SDS011;55555;52.136;5.424;2022-11-25T02:26:23;35.83;;;6.35;;
68579;SDS011;55555;52.136;5.424;2022-11-25T02:28:50;22.60;;;4.85;;
68579;SDS011;55555;52.136;5.424;2022-11-25T02:31:19;19.50;;;4.78;;
68579;SDS011;55555;52.136;5.424;2022-11-25T02:33:49;28.10;;;4.88;;
68579;SDS011;55555;52.136;5.424;2022-11-25T02:36:18;40.30;;;5.80;;
68579;SDS011;55555;52.136;5.424;2022-11-25T02:38:48;26.38;;;5.03;;
68579;SDS011;55555;52.136;5.424;2022-11-25T02:41:31;22.17;;;5.13;;
68579;SDS011;55555;52.136;5.424;2022-11-25T02:44:12;22.80;;;4.97;;
68579;SDS011;55555;52.136;5.424;2022-11-25T02:46:40;26.17;;;5.57;;
68579;SDS011;55555;52.136;5.424;2022-11-25T02:49:07;23.97;;;4.87;;
68579;SDS011;55555;52.136;5.424;2022-11-25T02:51:38;24.48;;;5.20;;
68579;SDS011;55555;52.136;5.424;2022-11-25T02:54:10;30.30;;;5.38;;
68579;SDS011;55555;52.136;5.424;2022-11-25T02:56:39;22.90;;;5.35;;
68579;SDS011;55555;52.136;5.424;2022-11-25T02:59:08;23.98;;;4.50;;
68579;SDS011;55555;52.136;5.424;2022-11-25T03:01:37;29.30;;;6.27;;
68579;SDS011;55555;52.136;5.424;2022-11-25T03:04:08;24.80;;;5.70;;
68579;SDS011;55555;52.136;5.424;2022-11-25T03:06:36;25.77;;;4.88;;
68579;SDS011;55555;52.136;5.424;2022-11-25T03:09:05;29.20;;;5.97;;
68579;SDS011;55555;52.136;5.424;2022-11-25T03:11:37;27.25;;;5.78;;
68579;SDS011;55555;52.136;5.424;2022-11-25T03:14:23;26.50;;;5.30;;
68579;SDS011;55555;52.136;5.424;2022-11-25T03:16:51;26.98;;;5.53;;
68579;SDS011;55555;52.136;5.424;2022-11-25T03:19:19;34.45;;;5.50;;
68579;SDS011;55555;52.136;5.424;2022-11-25T03:21:47;24.02;;;5.60;;
68579;SDS011;55555;52.136;5.424;2022-11-25T03:24:14;26.30;;;5.53;;
68579;SDS011;55555;52.136;5.424;2022-11-25T03:26:46;24.73;;;5.63;;
68579;SDS011;55555;52.136;5.424;2022-11-25T03:29:14;26.88;;;5.47;;
68579;SDS011;55555;52.136;5.424;2022-11-25T03:31:42;21.92;;;5.68;;
68579;SDS011;55555;52.136;5.424;2022-11-25T03:34:11;24.55;;;5.72;;
68579;SDS011;55555;52.136;5.424;2022-11-25T03:36:39;21.90;;;5.32;;
68579;SDS011;55555;52.136;5.424;2022-11-25T03:39:08;30.63;;;6.10;;
68579;SDS011;55555;52.136;5.424;2022-11-25T03:41:36;32.90;;;5.57;;
68579;SDS011;55555;52.136;5.424;2022-11-25T03:44:04;33.75;;;5.25;;
68579;SDS011;55555;52.136;5.424;2022-11-25T03:46:33;25.30;;;5.43;;
68579;SDS011;55555;52.136;5.424;2022-11-25T03:49:03;29.75;;;6.35;;
68579;SDS011;55555;52.136;5.424;2022-11-25T03:51:31;22.00;;;5.13;;
68579;SDS011;55555;52.136;5.424;2022-11-25T03:53:59;24.80;;;5.40;;
68579;SDS011;55555;52.136;5.424;2022-11-25T03:56:28;23.67;;;5.45;;
68579;SDS011;55555;52.136;5.424;2022-11-25T03:58:56;25.20;;;5.53;;
68579;SDS011;55555;52.136;5.424;2022-11-25T04:01:23;22.55;;;4.85;;
68579;SDS011;55555;52.136;5.424;2022-11-25T04:03:51;25.83;;;5.10;;
68579;SDS011;55555;52.136;5.424;2022-11-25T04:06:19;22.77;;;5.30;;
68579;SDS011;55555;52.136;5.424;2022-11-25T04:08:51;27.83;;;5.22;;
68579;SDS011;55555;52.136;5.424;2022-11-25T04:11:20;19.90;;;5.47;;
68579;SDS011;55555;52.136;5.424;2022-11-25T04:13:53;26.50;;;5.03;;
68579;SDS011;55555;52.136;5.424;2022-11-25T04:16:22;24.50;;;5.30;;
68579;SDS011;55555;52.136;5.424;2022-11-25T04:18:53;20.65;;;4.82;;
68579;SDS011;55555;52.136;5.424;2022-11-25T04:21:22;24.40;;;5.28;;
68579;SDS011;55555;52.136;5.424;2022-11-25T04:23:50;22.88;;;4.13;;
68579;SDS011;55555;52.136;5.424;2022-11-25T04:26:18;21.02;;;4.63;;
68579;SDS011;55555;52.136;5.424;2022-11-25T04:28:45;18.93;;;4.27;;
68579;SDS011;55555;52.136;5.424;2022-11-25T04:31:13;25.17;;;4.95;;
68579;SDS011;55555;52.136;5.424;2022-11-25T04:33:42;20.80;;;3.50;;
68579;SDS011;55555;52.136;5.424;2022-11-25T04:36:18;17.40;;;4.38;;
68579;SDS011;55555;52.136;5.424;2022-11-25T04:38:46;17.95;;;4.03;;
68579;SDS011;55555;52.136;5.424;2022-11-25T04:41:14;17.27;;;3.57;;
68579;SDS011;55555;52.136;5.424;2022-11-25T04:43:43;14.95;;;3.38;;
68579;SDS011;55555;52.136;5.424;2022-11-25T04:46:16;17.10;;;3.20;;
68579;SDS011;55555;52.136;5.424;2022-11-25T04:48:50;14.82;;;3.03;;
68579;SDS011;55555;52.136;5.424;2022-11-25T04:51:19;22.20;;;3.40;;
68579;SDS011;55555;52.136;5.424;2022-11-25T04:53:50;13.60;;;2.83;;
68579;SDS011;55555;52.136;5.424;2022-11-25T04:56:18;15.43;;;3.08;;
68579;SDS011;55555;52.136;5.424;2022-11-25T04:58:50;12.50;;;2.58;;
68579;SDS011;55555;52.136;5.424;2022-11-25T05:01:40;10.82;;;2.88;;
68579;SDS011;55555;52.136;5.424;2022-11-25T05:04:25;13.27;;;2.67;;
68579;SDS011;55555;52.136;5.424;2022-11-25T05:06:53;13.77;;;3.23;;
68579;SDS011;55555;52.136;5.424;2022-11-25T05:09:23;13.52;;;2.60;;
68579;SDS011;55555;52.136;5.424;2022-11-25T05:12:05;10.10;;;2.70;;
68579;SDS011;55555;52.136;5.424;2022-11-25T05:14:35;8.18;;;1.92;;
68579;SDS011;55555;52.136;5.424;2022-11-25T05:17:03;11.63;;;2.30;;
68579;SDS011;55555;52.136;5.424;2022-11-25T05:19:33;10.37;;;1.90;;
68579;SDS011;55555;52.136;5.424;2022-11-25T05:22:02;12.45;;;2.38;;
68579;SDS011;55555;52.136;5.424;2022-11-25T05:24:31;8.90;;;2.22;;
68579;SDS011;55555;52.136;5.424;2022-11-25T05:26:58;10.07;;;2.75;;
68579;SDS011;55555;52.136;5.424;2022-11-25T05:29:26;9.57;;;2.70;;
68579;SDS011;55555;52.136;5.424;2022-11-25T05:31:54;10.70;;;2.43;;
68579;SDS011;55555;52.136;5.424;2022-11-25T05:34:22;11.48;;;2.55;;
68579;SDS011;55555;52.136;5.424;2022-11-25T05:36:51;13.25;;;2.40;;
68579;SDS011;55555;52.136;5.424;2022-11-25T05:39:19;10.63;;;2.35;;
68579;SDS011;55555;52.136;5.424;2022-11-25T05:42:12;10.40;;;2.10;;
68579;SDS011;55555;52.136;5.424;2022-11-25T05:44:41;11.93;;;2.83;;
68579;SDS011;55555;52.136;5.424;2022-11-25T05:47:08;9.90;;;2.50;;
68579;SDS011;55555;52.136;5.424;2022-11-25T05:49:38;13.68;;;2.83;;
68579;SDS011;55555;52.136;5.424;2022-11-25T05:52:06;10.07;;;2.10;;
68579;SDS011;55555;52.136;5.424;2022-11-25T05:54:42;9.18;;;2.38;;
68579;SDS011;55555;52.136;5.424;2022-11-25T05:57:10;10.77;;;2.80;;
68579;SDS011;55555;52.136;5.424;2022-11-25T05:59:41;13.70;;;2.75;;
68579;SDS011;55555;52.136;5.424;2022-11-25T06:02:19;12.57;;;2.53;;
68579;SDS011;55555;52.136;5.424;2022-11-25T06:04:47;7.57;;;2.95;;
68579;SDS011;55555;52.136;5.424;2022-11-25T06:07:15;10.35;;;2.38;;
68579;SDS011;55555;52.136;5.424;2022-11-25T06:09:43;14.00;;;3.57;;
68579;SDS011;55555;52.136;5.424;2022-11-25T06:12:11;12.45;;;2.90;;
68579;SDS011;55555;52.136;5.424;2022-11-25T06:14:46;9.05;;;2.83;;
68579;SDS011;55555;52.136;5.424;2022-11-25T06:17:13;8.93;;;2.92;;
68579;SDS011;55555;52.136;5.424;2022-11-25T06:19:50;14.63;;;3.03;;
68579;SDS011;55555;52.136;5.424;2022-11-25T06:22:18;14.43;;;3.43;;
68579;SDS011;55555;52.136;5.424;2022-11-25T06:24:45;13.07;;;3.50;;
68579;SDS011;55555;52.136;5.424;2022-11-25T06:27:25;14.13;;;4.05;;
68579;SDS011;55555;52.136;5.424;2022-11-25T06:30:10;15.02;;;3.15;;
68579;SDS011;55555;52.136;5.424;2022-11-25T06:32:44;16.85;;;3.38;;
68579;SDS011;55555;52.136;5.424;2022-11-25T06:35:19;13.10;;;4.07;;
68579;SDS011;55555;52.136;5.424;2022-11-25T06:37:53;10.82;;;3.58;;
68579;SDS011;55555;52.136;5.424;2022-11-25T06:40:21;12.65;;;3.58;;
68579;SDS011;55555;52.136;5.424;2022-11-25T06:42:49;15.68;;;3.70;;
68579;SDS011;55555;52.136;5.424;2022-11-25T06:45:17;11.85;;;3.72;;
68579;SDS011;55555;52.136;5.424;2022-11-25T06:47:44;16.30;;;3.33;;
68579;SDS011;55555;52.136;5.424;2022-11-25T06:50:13;19.02;;;4.15;;
68579;SDS011;55555;52.136;5.424;2022-11-25T06:52:41;15.30;;;3.97;;
68579;SDS011;55555;52.136;5.424;2022-11-25T06:55:08;16.27;;;4.25;;
68579;SDS011;55555;52.136;5.424;2022-11-25T06:57:36;15.07;;;4.07;;
68579;SDS011;55555;52.136;5.424;2022-11-25T07:00:04;14.47;;;4.33;;
68579;SDS011;55555;52.136;5.424;2022-11-25T07:02:33;12.90;;;3.75;;
68579;SDS011;55555;52.136;5.424;2022-11-25T07:05:09;19.95;;;4.57;;
68579;SDS011;55555;52.136;5.424;2022-11-25T07:07:38;16.98;;;4.68;;
68579;SDS011;55555;52.136;5.424;2022-11-25T07:10:06;11.23;;;4.78;;
68579;SDS011;55555;52.136;5.424;2022-11-25T07:12:34;17.33;;;5.20;;
68579;SDS011;55555;52.136;5.424;2022-11-25T07:15:02;17.77;;;4.43;;
68579;SDS011;55555;52.136;5.424;2022-11-25T07:17:31;15.63;;;4.47;;
68579;SDS011;55555;52.136;5.424;2022-11-25T07:19:58;20.20;;;4.90;;
68579;SDS011;55555;52.136;5.424;2022-11-25T07:22:26;14.30;;;4.70;;
68579;SDS011;55555;52.136;5.424;2022-11-25T07:24:53;22.03;;;4.80;;
68579;SDS011;55555;52.136;5.424;2022-11-25T07:27:21;15.10;;;4.53;;
68579;SDS011;55555;52.136;5.424;2022-11-25T07:29:49;16.35;;;4.72;;
68579;SDS011;55555;52.136;5.424;2022-11-25T07:32:37;16.25;;;5.55;;
68579;SDS011;55555;52.136;5.424;2022-11-25T07:35:04;20.83;;;5.53;;
68579;SDS011;55555;52.136;5.424;2022-11-25T07:37:32;15.80;;;5.23;;
68579;SDS011;55555;52.136;5.424;2022-11-25T07:40:00;19.55;;;5.38;;
68579;SDS011;55555;52.136;5.424;2022-11-25T07:42:28;22.30;;;4.85;;
68579;SDS011;55555;52.136;5.424;2022-11-25T07:44:56;19.98;;;5.80;;
68579;SDS011;55555;52.136;5.424;2022-11-25T07:47:40;24.02;;;6.20;;
68579;SDS011;55555;52.136;5.424;2022-11-25T07:50:07;19.53;;;5.90;;
68579;SDS011;55555;52.136;5.424;2022-11-25T07:52:36;17.75;;;5.93;;
68579;SDS011;55555;52.136;5.424;2022-11-25T07:55:06;20.85;;;5.72;;
68579;SDS011;55555;52.136;5.424;2022-11-25T07:57:34;24.95;;;6.68;;
68579;SDS011;55555;52.136;5.424;2022-11-25T08:00:02;26.83;;;6.65;;
68579;SDS011;55555;52.136;5.424;2022-11-25T08:02:37;18.33;;;6.30;;
68579;SDS011;55555;52.136;5.424;2022-11-25T08:05:05;19.60;;;5.97;;
68579;SDS011;55555;52.136;5.424;2022-11-25T08:07:33;23.83;;;6.22;;
68579;SDS011;55555;52.136;5.424;2022-11-25T08:10:03;24.58;;;6.45;;
68579;SDS011;55555;52.136;5.424;2022-11-25T08:12:31;21.77;;;6.20;;
68579;SDS011;55555;52.136;5.424;2022-11-25T08:15:00;20.77;;;5.47;;
68579;SDS011;55555;52.136;5.424;2022-11-25T08:17:28;23.38;;;5.78;;
68579;SDS011;55555;52.136;5.424;2022-11-25T08:19:56;17.58;;;6.22;;
68579;SDS011;55555;52.136;5.424;2022-11-25T08:22:23;19.45;;;5.95;;
68579;SDS011;55555;52.136;5.424;2022-11-25T08:24:51;18.70;;;5.72;;
68579;SDS011;55555;52.136;5.424;2022-11-25T08:27:19;22.73;;;6.53;;
68579;SDS011;55555;52.136;5.424;2022-11-25T08:29:46;18.30;;;5.90;;
68579;SDS011;55555;52.136;5.424;2022-11-25T08:32:14;21.60;;;5.95;;
68579;SDS011;55555;52.136;5.424;2022-11-25T08:34:42;22.25;;;6.85;;
68579;SDS011;55555;52.136;5.424;2022-11-25T08:37:11;20.58;;;6.45;;
68579;SDS011;55555;52.136;5.424;2022-11-25T08:39:38;18.70;;;6.73;;
68579;SDS011;55555;52.136;5.424;2022-11-25T08:42:22;22.77;;;6.50;;
68579;SDS011;55555;52.136;5.424;2022-11-25T08:44:51;21.48;;;6.88;;
68579;SDS011;55555;52.136;5.424;2022-11-25T08:47:21;22.75;;;6.32;;
68579;SDS011;55555;52.136;5.424;2022-11-25T08:49:53;19.20;;;6.22;;
68579;SDS011;55555;52.136;5.424;2022-11-25T08:52:21;19.97;;;6.10;;
68579;SDS011;55555;52.136;5.424;2022-11-25T08:55:01;20.65;;;6.28;;
68579;SDS011;55555;52.136;5.424;2022-11-25T08:58:38;18.45;;;5.20;;
68579;SDS011;55555;52.136;5.424;2022-11-25T09:01:06;14.90;;;5.97;;
68579;SDS011;55555;52.136;5.424;2022-11-25T09:03:35;17.77;;;6.38;;
68579;SDS011;55555;52.136;5.424;2022-11-25T09:06:09;15.40;;;5.50;;
68579;SDS011;55555;52.136;5.424;2022-11-25T09:08:39;23.73;;;6.45;;
68579;SDS011;55555;52.136;5.424;2022-11-25T09:11:08;19.40;;;5.68;;
68579;SDS011;55555;52.136;5.424;2022-11-25T09:13:36;16.10;;;5.40;;
68579;SDS011;55555;52.136;5.424;2022-11-25T09:16:13;19.23;;;5.50;;
68579;SDS011;55555;52.136;5.424;2022-11-25T09:18:41;24.93;;;6.20;;
68579;SDS011;55555;52.136;5.424;2022-11-25T09:21:09;26.90;;;6.38;;
68579;SDS011;55555;52.136;5.424;2022-11-25T09:23:40;13.32;;;5.40;;
68579;SDS011;55555;52.136;5.424;2022-11-25T09:26:12;14.88;;;5.35;;
68579;SDS011;55555;52.136;5.424;2022-11-25T09:28:51;16.15;;;5.38;;
68579;SDS011;55555;52.136;5.424;2022-11-25T09:31:19;19.77;;;6.27;;
68579;SDS011;55555;52.136;5.424;2022-11-25T09:33:49;18.75;;;5.30;;
68579;SDS011;55555;52.136;5.424;2022-11-25T09:36:17;15.10;;;5.45;;
68579;SDS011;55555;52.136;5.424;2022-11-25T09:38:46;16.65;;;4.80;;
68579;SDS011;55555;52.136;5.424;2022-11-25T09:41:17;21.95;;;5.55;;
68579;SDS011;55555;52.136;5.424;2022-11-25T09:48:05;15.27;;;5.43;;
68579;SDS011;55555;52.136;5.424;2022-11-25T09:50:55;11.88;;;4.32;;
68579;SDS011;55555;52.136;5.424;2022-11-25T09:53:49;16.60;;;4.80;;
68579;SDS011;55555;52.136;5.424;2022-11-25T09:56:28;16.85;;;4.78;;
68579;SDS011;55555;52.136;5.424;2022-11-25T09:59:06;20.23;;;4.80;;
68579;SDS011;55555;52.136;5.424;2022-11-25T10:01:44;12.23;;;4.75;;
68579;SDS011;55555;52.136;5.424;2022-11-25T10:04:24;17.67;;;4.72;;
68579;SDS011;55555;52.136;5.424;2022-11-25T10:07:00;11.65;;;4.50;;
68579;SDS011;55555;52.136;5.424;2022-11-25T10:09:31;15.77;;;4.10;;
68579;SDS011;55555;52.136;5.424;2022-11-25T10:12:10;16.13;;;4.60;;
68579;SDS011;55555;52.136;5.424;2022-11-25T10:14:55;13.70;;;3.72;;
68579;SDS011;55555;52.136;5.424;2022-11-25T10:20:17;11.35;;;3.80;;
68579;SDS011;55555;52.136;5.424;2022-11-25T10:23:14;18.08;;;4.07;;
68579;SDS011;55555;52.136;5.424;2022-11-25T10:25:58;11.17;;;3.40;;
68579;SDS011;55555;52.136;5.424;2022-11-25T10:28:36;17.13;;;4.53;;
68579;SDS011;55555;52.136;5.424;2022-11-25T10:31:13;14.10;;;4.00;;
68579;SDS011;55555;52.136;5.424;2022-11-25T10:33:45;15.75;;;4.15;;
68579;SDS011;55555;52.136;5.424;2022-11-25T10:36:35;13.02;;;3.72;;
68579;SDS011;55555;52.136;5.424;2022-11-25T10:39:19;15.50;;;3.63;;
68579;SDS011;55555;52.136;5.424;2022-11-25T10:41:57;10.50;;;3.53;;
68579;SDS011;55555;52.136;5.424;2022-11-25T10:44:34;12.48;;;4.50;;
68579;SDS011;55555;52.136;5.424;2022-11-25T10:55:39;13.40;;;3.88;;
68579;SDS011;55555;52.136;5.424;2022-11-25T11:01:14;14.45;;;3.65;;
68579;SDS011;55555;52.136;5.424;2022-11-25T11:03:43;16.77;;;3.92;;
68579;SDS011;55555;52.136;5.424;2022-11-25T11:06:30;14.57;;;4.13;;
68579;SDS011;55555;52.136;5.424;2022-11-25T11:12:12;16.48;;;4.38;;
68579;SDS011;55555;52.136;5.424;2022-11-25T11:14:52;13.20;;;3.92;;
68579;SDS011;55555;52.136;5.424;2022-11-25T11:17:47;17.05;;;4.13;;
68579;SDS011;55555;52.136;5.424;2022-11-25T11:20:18;14.77;;;4.03;;
68579;SDS011;55555;52.136;5.424;2022-11-25T11:22:56;16.15;;;3.72;;
68579;SDS011;55555;52.136;5.424;2022-11-25T11:25:40;13.52;;;4.15;;
68579;SDS011;55555;52.136;5.424;2022-11-25T11:31:04;20.75;;;4.15;;
68579;SDS011;55555;52.136;5.424;2022-11-25T11:36:26;16.17;;;4.00;;
68579;SDS011;55555;52.136;5.424;2022-11-25T11:54:57;13.18;;;3.78;;
68579;SDS011;55555;52.136;5.424;2022-11-25T12:00:17;16.38;;;4.30;;
68579;SDS011;55555;52.136;5.424;2022-11-25T12:05:32;14.07;;;3.67;;
68579;SDS011;55555;52.136;5.424;2022-11-25T12:16:34;11.47;;;3.40;;
68579;SDS011;55555;52.136;5.424;2022-11-25T12:19:23;16.58;;;3.97;;
68579;SDS011;55555;52.136;5.424;2022-11-25T12:22:00;16.92;;;3.15;;
68579;SDS011;55555;52.136;5.424;2022-11-25T12:24:49;11.93;;;3.28;;
68579;SDS011;55555;52.136;5.424;2022-11-25T12:27:39;13.07;;;2.72;;
68579;SDS011;55555;52.136;5.424;2022-11-25T12:30:14;12.57;;;3.47;;
68579;SDS011;55555;52.136;5.424;2022-11-25T12:33:00;16.35;;;3.05;;
68579;SDS011;55555;52.136;5.424;2022-11-25T12:44:11;13.83;;;2.97;;
68579;SDS011;55555;52.136;5.424;2022-11-25T12:46:48;15.73;;;2.97;;
68579;SDS011;55555;52.136;5.424;2022-11-25T12:49:18;16.50;;;3.65;;
68579;SDS011;55555;52.136;5.424;2022-11-25T13:01:15;14.70;;;2.70;;
68579;SDS011;55555;52.136;5.424;2022-11-25T13:07:03;9.95;;;3.00;;
68579;SDS011;55555;52.136;5.424;2022-11-25T13:10:07;15.73;;;3.17;;
68579;SDS011;55555;52.136;5.424;2022-11-25T13:13:14;12.03;;;2.83;;
68579;SDS011;55555;52.136;5.424;2022-11-25T13:16:09;12.77;;;2.78;;
68579;SDS011;55555;52.136;5.424;2022-11-25T13:18:39;10.30;;;2.60;;
68579;SDS011;55555;52.136;5.424;2022-11-25T13:21:13;12.45;;;2.50;;
68579;SDS011;55555;52.136;5.424;2022-11-25T13:23:50;18.33;;;2.97;;
68579;SDS011;55555;52.136;5.424;2022-11-25T13:29:00;9.90;;;2.63;;
68579;SDS011;55555;52.136;5.424;2022-11-25T13:34:29;15.57;;;2.42;;
68579;SDS011;55555;52.136;5.424;2022-11-25T13:36:59;16.15;;;2.95;;
68579;SDS011;55555;52.136;5.424;2022-11-25T13:42:21;19.52;;;3.25;;
68579;SDS011;55555;52.136;5.424;2022-11-25T13:44:55;15.50;;;2.55;;
68579;SDS011;55555;52.136;5.424;2022-11-25T13:47:35;13.68;;;2.90;;
68579;SDS011;55555;52.136;5.424;2022-11-25T13:53:01;13.27;;;2.47;;
68579;SDS011;55555;52.136;5.424;2022-11-25T13:55:34;17.95;;;3.45;;
68579;SDS011;55555;52.136;5.424;2022-11-25T14:09:03;14.02;;;3.08;;
68579;SDS011;55555;52.136;5.424;2022-11-25T14:11:58;15.82;;;3.42;;
68579;SDS011;55555;52.136;5.424;2022-11-25T14:29:20;19.55;;;3.28;;
68579;SDS011;55555;52.136;5.424;2022-11-25T14:32:22;17.88;;;3.50;;
68579;SDS011;55555;52.136;5.424;2022-11-25T14:37:48;17.02;;;3.60;;
68579;SDS011;55555;52.136;5.424;2022-11-25T14:40:23;15.57;;;3.10;;
68579;SDS011;55555;52.136;5.424;2022-11-25T14:43:27;19.05;;;3.08;;
68579;SDS011;55555;52.136;5.424;2022-11-25T14:46:10;15.43;;;3.65;;
68579;SDS011;55555;52.136;5.424;2022-11-25T14:48:43;14.47;;;3.43;;
68579;SDS011;55555;52.136;5.424;2022-11-25T14:51:20;19.13;;;3.92;;
68579;SDS011;55555;52.136;5.424;2022-11-25T14:53:48;22.88;;;3.42;;
68579;SDS011;55555;52.136;5.424;2022-11-25T14:56:36;25.73;;;3.55;;
68579;SDS011;55555;52.136;5.424;2022-11-25T14:59:06;19.35;;;3.92;;
68579;SDS011;55555;52.136;5.424;2022-11-25T15:01:37;24.37;;;4.83;;
68579;SDS011;55555;52.136;5.424;2022-11-25T15:04:14;20.42;;;3.90;;
68579;SDS011;55555;52.136;5.424;2022-11-25T15:06:50;19.77;;;3.70;;
68579;SDS011;55555;52.136;5.424;2022-11-25T15:09:24;26.58;;;4.50;;
68579;SDS011;55555;52.136;5.424;2022-11-25T15:11:59;28.02;;;5.32;;
68579;SDS011;55555;52.136;5.424;2022-11-25T15:14:35;25.07;;;4.93;;
68579;SDS011;55555;52.136;5.424;2022-11-25T15:17:07;19.95;;;3.55;;
68579;SDS011;55555;52.136;5.424;2022-11-25T15:19:46;16.92;;;3.63;;
68579;SDS011;55555;52.136;5.424;2022-11-25T15:22:14;21.45;;;4.15;;
68579;SDS011;55555;52.136;5.424;2022-11-25T15:24:50;25.95;;;4.00;;
68579;SDS011;55555;52.136;5.424;2022-11-25T15:27:23;18.63;;;3.90;;
68579;SDS011;55555;52.136;5.424;2022-11-25T15:29:54;24.15;;;3.92;;
68579;SDS011;55555;52.136;5.424;2022-11-25T15:32:25;16.27;;;3.67;;
68579;SDS011;55555;52.136;5.424;2022-11-25T15:34:57;27.27;;;4.53;;
68579;SDS011;55555;52.136;5.424;2022-11-25T15:37:27;30.75;;;4.95;;
68579;SDS011;55555;52.136;5.424;2022-11-25T15:43:04;26.10;;;5.80;;
68579;SDS011;55555;52.136;5.424;2022-11-25T15:45:47;43.40;;;5.95;;
68579;SDS011;55555;52.136;5.424;2022-11-25T15:48:20;22.10;;;5.63;;
68579;SDS011;55555;52.136;5.424;2022-11-25T15:51:04;30.85;;;6.50;;
68579;SDS011;55555;52.136;5.424;2022-11-25T15:57:28;17.58;;;5.53;;
68579;SDS011;55555;52.136;5.424;2022-11-25T16:10:20;30.52;;;5.85;;
68579;SDS011;55555;52.136;5.424;2022-11-25T16:18:37;21.88;;;6.95;;
68579;SDS011;55555;52.136;5.424;2022-11-25T16:21:08;27.97;;;7.90;;
68579;SDS011;55555;52.136;5.424;2022-11-25T16:23:41;21.25;;;7.78;;
68579;SDS011;55555;52.136;5.424;2022-11-25T16:26:19;26.27;;;8.00;;
68579;SDS011;55555;52.136;5.424;2022-11-25T16:28:55;25.90;;;8.70;;
68579;SDS011;55555;52.136;5.424;2022-11-25T16:31:25;25.10;;;9.38;;
68579;SDS011;55555;52.136;5.424;2022-11-25T16:34:07;30.90;;;10.10;;
68579;SDS011;55555;52.136;5.424;2022-11-25T16:36:41;25.95;;;10.27;;
68579;SDS011;55555;52.136;5.424;2022-11-25T16:39:09;27.15;;;9.73;;
68579;SDS011;55555;52.136;5.424;2022-11-25T16:41:37;27.92;;;10.07;;
68579;SDS011;55555;52.136;5.424;2022-11-25T16:44:17;25.67;;;9.48;;
68579;SDS011;55555;52.136;5.424;2022-11-25T16:46:47;29.47;;;8.93;;
68579;SDS011;55555;52.136;5.424;2022-11-25T16:49:16;22.48;;;9.45;;
68579;SDS011;55555;52.136;5.424;2022-11-25T16:51:46;22.13;;;9.40;;
68579;SDS011;55555;52.136;5.424;2022-11-25T16:54:19;28.48;;;9.10;;
68579;SDS011;55555;52.136;5.424;2022-11-25T16:56:49;23.80;;;8.73;;
68579;SDS011;55555;52.136;5.424;2022-11-25T16:59:21;24.47;;;10.07;;
68579;SDS011;55555;52.136;5.424;2022-11-25T17:02:29;26.25;;;10.65;;
68579;SDS011;55555;52.136;5.424;2022-11-25T17:04:53;31.35;;;11.18;;
68579;SDS011;55555;52.136;5.424;2022-11-25T17:07:21;26.80;;;10.45;;
68579;SDS011;55555;52.136;5.424;2022-11-25T17:10:04;24.05;;;11.63;;
68579;SDS011;55555;52.136;5.424;2022-11-25T17:12:34;30.40;;;11.30;;
68579;SDS011;55555;52.136;5.424;2022-11-25T17:15:04;35.92;;;10.55;;
68579;SDS011;55555;52.136;5.424;2022-11-25T17:17:39;26.33;;;10.88;;
68579;SDS011;55555;52.136;5.424;2022-11-25T17:20:15;29.55;;;10.60;;
68579;SDS011;55555;52.136;5.424;2022-11-25T17:22:47;32.47;;;10.35;;
68579;SDS011;55555;52.136;5.424;2022-11-25T17:25:15;29.53;;;10.20;;
68579;SDS011;55555;52.136;5.424;2022-11-25T17:27:43;27.05;;;11.02;;
68579;SDS011;55555;52.136;5.424;2022-11-25T17:30:15;26.42;;;10.27;;
68579;SDS011;55555;52.136;5.424;2022-11-25T17:32:54;22.52;;;10.07;;
68579;SDS011;55555;52.136;5.424;2022-11-25T17:35:29;24.42;;;10.63;;
68579;SDS011;55555;52.136;5.424;2022-11-25T17:37:57;27.10;;;10.23;;